Time,TemperatureF,DewpointF,PressureIn,WindDirection,WindDirectionDegrees,WindSpeedMPH,WindSpeedGustMPH,Humidity,HourlyPrecipIn,Conditions,Clouds,dailyrainin,SoftwareType,DateUTC
2013-05-15 00:04:00,56.0,41.0,30.20,SW,214,1.0,2.0,57,0.00,,,0.00,Meteo,2013-05-15 05:04:00,
2013-05-15 00:09:00,56.0,41.0,30.20,SSW,210,1.0,2.0,57,0.00,,,0.00,Meteo,2013-05-15 05:09:00,
2013-05-15 00:14:00,56.0,41.0,30.20,SW,233,1.0,2.0,57,0.00,,,0.00,Meteo,2013-05-15 05:14:00,
2013-05-15 00:20:00,57.0,42.0,30.20,WSW,249,3.0,6.0,57,0.00,,,0.00,Meteo,2013-05-15 05:20:00,
2013-05-15 00:25:00,57.0,42.0,30.20,West,259,2.0,3.0,58,0.00,,,0.00,Meteo,2013-05-15 05:25:00,
2013-05-15 00:30:00,58.0,43.0,30.21,WSW,252,1.0,3.0,57,0.00,,,0.00,Meteo,2013-05-15 05:30:00,
2013-05-15 00:35:00,58.0,43.0,30.21,WSW,253,2.0,3.0,57,0.00,,,0.00,Meteo,2013-05-15 05:35:00,
2013-05-15 00:40:00,59.0,44.0,30.21,West,261,1.0,3.0,57,0.00,,,0.00,Meteo,2013-05-15 05:40:00,
2013-05-15 00:45:00,59.0,44.0,30.21,WSW,245,3.0,5.0,57,0.00,,,0.00,Meteo,2013-05-15 05:45:00,
2013-05-15 00:50:00,60.0,44.0,30.21,WSW,251,3.0,6.0,56,0.00,,,0.00,Meteo,2013-05-15 05:50:00,
2013-05-15 00:55:00,60.0,44.0,30.22,WSW,241,1.0,3.0,56,0.00,,,0.00,Meteo,2013-05-15 05:55:00,
2013-05-15 01:00:00,60.0,44.0,30.22,SW,228,2.0,5.0,56,0.00,,,0.00,Meteo,2013-05-15 06:00:00,
2013-05-15 01:05:00,61.0,45.0,30.22,WSW,254,2.0,4.0,56,0.00,,,0.00,Meteo,2013-05-15 06:05:00,
2013-05-15 01:10:00,61.0,45.0,30.23,WSW,243,2.0,4.0,55,0.00,,,0.00,Meteo,2013-05-15 06:10:00,
2013-05-15 01:15:00,61.0,45.0,30.23,WSW,240,2.0,4.0,55,0.00,,,0.00,Meteo,2013-05-15 06:15:00,
2013-05-15 01:20:00,61.0,45.0,30.24,West,261,2.0,4.0,55,0.00,,,0.00,Meteo,2013-05-15 06:20:00,
2013-05-15 01:25:00,62.0,46.0,30.24,West,267,2.0,4.0,55,0.00,,,0.00,Meteo,2013-05-15 06:25:00,
2013-05-15 01:30:00,62.0,46.0,30.24,West,273,1.0,2.0,56,0.00,,,0.00,Meteo,2013-05-15 06:30:00,
2013-05-15 01:35:00,61.0,45.0,30.24,WSW,257,2.0,4.0,56,0.00,,,0.00,Meteo,2013-05-15 06:35:00,
2013-05-15 01:40:00,62.0,47.0,30.25,West,265,2.0,3.0,57,0.00,,,0.00,Meteo,2013-05-15 06:40:00,
2013-05-15 01:45:00,62.0,47.0,30.25,West,274,4.0,9.0,57,0.00,,,0.00,Meteo,2013-05-15 06:45:00,
2013-05-15 01:50:00,62.0,47.0,30.25,West,262,2.0,4.0,57,0.00,,,0.00,Meteo,2013-05-15 06:50:00,
2013-05-15 01:55:00,62.0,47.0,30.26,WNW,289,3.0,6.0,57,0.00,,,0.00,Meteo,2013-05-15 06:55:00,
2013-05-15 02:00:00,62.0,47.0,30.26,West,261,3.0,10.0,58,0.00,,,0.00,Meteo,2013-05-15 07:00:00,
2013-05-15 02:05:00,62.0,47.0,30.26,West,262,4.0,8.0,58,0.00,,,0.00,Meteo,2013-05-15 07:05:00,
2013-05-15 02:10:00,61.0,47.0,30.27,West,267,3.0,7.0,59,0.00,,,0.00,Meteo,2013-05-15 07:10:00,
2013-05-15 02:15:00,61.0,47.0,30.27,WSW,258,2.0,6.0,59,0.00,,,0.00,Meteo,2013-05-15 07:15:00,
2013-05-15 02:20:00,61.0,47.0,30.27,WNW,296,2.0,6.0,59,0.00,,,0.00,Meteo,2013-05-15 07:20:00,
2013-05-15 02:25:00,61.0,47.0,30.28,WNW,290,3.0,5.0,60,0.00,,,0.00,Meteo,2013-05-15 07:25:00,
2013-05-15 02:30:00,61.0,47.0,30.28,WNW,286,3.0,4.0,61,0.00,,,0.00,Meteo,2013-05-15 07:30:00,
2013-05-15 02:35:00,61.0,47.0,30.28,West,271,2.0,7.0,61,0.00,,,0.00,Meteo,2013-05-15 07:35:00,
2013-05-15 02:40:00,61.0,48.0,30.29,WNW,301,2.0,4.0,62,0.00,,,0.00,Meteo,2013-05-15 07:40:00,
2013-05-15 02:46:00,60.0,47.0,30.30,NW,313,4.0,7.0,62,0.00,,,0.00,Meteo,2013-05-15 07:46:00,
2013-05-15 02:51:00,60.0,47.0,30.30,WNW,303,3.0,5.0,62,0.00,,,0.00,Meteo,2013-05-15 07:51:00,
2013-05-15 02:56:00,60.0,47.0,30.30,WNW,299,3.0,7.0,63,0.00,,,0.00,Meteo,2013-05-15 07:56:00,
2013-05-15 03:01:00,60.0,47.0,30.30,WNW,302,6.0,10.0,63,0.00,,,0.00,Meteo,2013-05-15 08:01:00,
2013-05-15 03:06:00,60.0,47.0,30.31,NW,313,5.0,8.0,63,0.00,,,0.00,Meteo,2013-05-15 08:06:00,
2013-05-15 03:11:00,60.0,47.0,30.31,NW,320,4.0,9.0,62,0.00,,,0.00,Meteo,2013-05-15 08:11:00,
2013-05-15 03:16:00,59.0,46.0,30.32,WNW,297,4.0,6.0,62,0.00,,,0.00,Meteo,2013-05-15 08:16:00,
2013-05-15 03:21:00,59.0,46.0,30.32,WNW,303,6.0,10.0,62,0.00,,,0.00,Meteo,2013-05-15 08:21:00,
2013-05-15 03:26:00,59.0,46.0,30.32,WNW,290,3.0,5.0,63,0.00,,,0.00,Meteo,2013-05-15 08:26:00,
2013-05-15 03:31:00,59.0,46.0,30.33,WNW,302,4.0,11.0,63,0.00,,,0.00,Meteo,2013-05-15 08:31:00,
2013-05-15 03:36:00,58.0,45.0,30.33,NW,311,5.0,9.0,63,0.00,,,0.00,Meteo,2013-05-15 08:36:00,
2013-05-15 03:41:00,58.0,45.0,30.33,NW,311,4.0,9.0,63,0.00,,,0.00,Meteo,2013-05-15 08:41:00,
2013-05-15 03:46:00,58.0,45.0,30.34,WNW,283,5.0,10.0,63,0.00,,,0.00,Meteo,2013-05-15 08:46:00,
2013-05-15 03:51:00,58.0,45.0,30.34,WNW,297,5.0,11.0,63,0.00,,,0.00,Meteo,2013-05-15 08:51:00,
2013-05-15 03:56:00,58.0,45.0,30.35,NW,308,4.0,9.0,63,0.00,,,0.00,Meteo,2013-05-15 08:56:00,
2013-05-15 04:01:00,58.0,45.0,30.35,NW,310,4.0,7.0,63,0.00,,,0.00,Meteo,2013-05-15 09:01:00,
2013-05-15 04:06:00,57.0,45.0,30.35,NW,305,4.0,8.0,63,0.00,,,0.00,Meteo,2013-05-15 09:06:00,
2013-05-15 04:11:00,57.0,45.0,30.35,NW,313,3.0,6.0,64,0.00,,,0.00,Meteo,2013-05-15 09:11:00,
2013-05-15 04:16:00,57.0,45.0,30.36,WNW,295,3.0,5.0,64,0.00,,,0.00,Meteo,2013-05-15 09:16:00,
2013-05-15 04:22:00,57.0,45.0,30.36,NW,304,2.0,3.0,64,0.00,,,0.00,Meteo,2013-05-15 09:22:00,
2013-05-15 04:27:00,57.0,45.0,30.36,NW,313,3.0,4.0,65,0.00,,,0.00,Meteo,2013-05-15 09:27:00,
2013-05-15 04:32:00,57.0,45.0,30.37,NW,312,3.0,4.0,65,0.00,,,0.00,Meteo,2013-05-15 09:32:00,
2013-05-15 04:37:00,56.0,44.0,30.37,West,279,2.0,3.0,65,0.00,,,0.00,Meteo,2013-05-15 09:37:00,
2013-05-15 04:42:00,56.0,44.0,30.37,WSW,258,1.0,2.0,65,0.00,,,0.00,Meteo,2013-05-15 09:42:00,
2013-05-15 04:47:00,56.0,45.0,30.37,WSW,241,1.0,3.0,66,0.00,,,0.00,Meteo,2013-05-15 09:47:00,
2013-05-15 04:52:00,56.0,45.0,30.37,West,262,1.0,3.0,66,0.00,,,0.00,Meteo,2013-05-15 09:52:00,
2013-05-15 04:57:00,55.0,44.0,30.37,WSW,248,0.0,2.0,67,0.00,,,0.00,Meteo,2013-05-15 09:57:00,
2013-05-15 05:02:00,55.0,44.0,30.38,WNW,299,0.0,1.0,67,0.00,,,0.00,Meteo,2013-05-15 10:02:00,
2013-05-15 05:07:00,55.0,45.0,30.38,NNW,333,1.0,2.0,68,0.00,,,0.00,Meteo,2013-05-15 10:07:00,
2013-05-15 05:12:00,55.0,45.0,30.38,North,0,0.0,0.0,68,0.00,,,0.00,Meteo,2013-05-15 10:12:00,
2013-05-15 05:17:00,55.0,45.0,30.38,SSW,209,0.0,2.0,68,0.00,,,0.00,Meteo,2013-05-15 10:17:00,
2013-05-15 05:22:00,55.0,45.0,30.38,WSW,241,0.0,2.0,68,0.00,,,0.00,Meteo,2013-05-15 10:22:00,
2013-05-15 05:27:00,55.0,45.0,30.38,WSW,246,1.0,3.0,68,0.00,,,0.00,Meteo,2013-05-15 10:27:00,
2013-05-15 05:32:00,55.0,45.0,30.38,WSW,237,0.0,1.0,68,0.00,,,0.00,Meteo,2013-05-15 10:32:00,
2013-05-15 05:37:00,54.0,44.0,30.38,WSW,243,0.0,1.0,68,0.00,,,0.00,Meteo,2013-05-15 10:37:00,
2013-05-15 05:42:00,54.0,44.0,30.38,SSW,213,1.0,2.0,68,0.00,,,0.00,Meteo,2013-05-15 10:42:00,
2013-05-15 05:48:00,54.0,44.0,30.38,SSE,168,1.0,2.0,69,0.00,,,0.00,Meteo,2013-05-15 10:48:00,
2013-05-15 05:53:00,53.0,43.0,30.39,SSW,208,1.0,2.0,70,0.00,,,0.00,Meteo,2013-05-15 10:53:00,
2013-05-15 05:58:00,53.0,43.0,30.39,SSW,208,0.0,2.0,70,0.00,,,0.00,Meteo,2013-05-15 10:58:00,
2013-05-15 06:03:00,53.0,43.0,30.39,SW,218,1.0,1.0,70,0.00,,,0.00,Meteo,2013-05-15 11:03:00,
2013-05-15 06:08:00,53.0,43.0,30.39,SW,227,1.0,3.0,70,0.00,,,0.00,Meteo,2013-05-15 11:08:00,
2013-05-15 06:14:00,54.0,44.0,30.39,SW,214,2.0,3.0,70,0.00,,,0.00,Meteo,2013-05-15 11:14:00,
2013-05-15 06:19:00,54.0,44.0,30.39,SSW,192,2.0,4.0,69,0.00,,,0.00,Meteo,2013-05-15 11:19:00,
2013-05-15 06:24:00,54.0,44.0,30.40,SSW,192,1.0,2.0,69,0.00,,,0.00,Meteo,2013-05-15 11:24:00,
2013-05-15 06:30:00,55.0,45.0,30.40,SSW,211,0.0,2.0,68,0.00,,,0.00,Meteo,2013-05-15 11:30:00,
2013-05-15 06:35:00,55.0,45.0,30.40,SSW,197,1.0,2.0,68,0.00,,,0.00,Meteo,2013-05-15 11:35:00,
2013-05-15 06:40:00,55.0,44.0,30.40,West,280,1.0,2.0,67,0.00,,,0.00,Meteo,2013-05-15 11:40:00,
2013-05-15 06:45:00,55.0,44.0,30.40,WSW,250,1.0,3.0,67,0.00,,,0.00,Meteo,2013-05-15 11:45:00,
2013-05-15 06:51:00,56.0,45.0,30.41,WSW,246,2.0,3.0,66,0.00,,,0.00,Meteo,2013-05-15 11:51:00,
2013-05-15 06:56:00,56.0,44.0,30.41,WSW,249,1.0,3.0,65,0.00,,,0.00,Meteo,2013-05-15 11:56:00,
2013-05-15 07:01:00,56.0,44.0,30.41,SW,220,2.0,5.0,64,0.00,,,0.00,Meteo,2013-05-15 12:01:00,
2013-05-15 07:06:00,57.0,45.0,30.41,SSW,200,1.0,2.0,64,0.00,,,0.00,Meteo,2013-05-15 12:06:00,
2013-05-15 07:11:00,57.0,45.0,30.42,SSW,205,2.0,4.0,63,0.00,,,0.00,Meteo,2013-05-15 12:11:00,
2013-05-15 07:16:00,58.0,45.0,30.42,SSW,211,3.0,4.0,62,0.00,,,0.00,Meteo,2013-05-15 12:16:00,
2013-05-15 07:21:00,58.0,45.0,30.42,SSW,211,2.0,3.0,62,0.00,,,0.00,Meteo,2013-05-15 12:21:00,
2013-05-15 07:26:00,58.0,45.0,30.42,SW,214,2.0,4.0,61,0.00,,,0.00,Meteo,2013-05-15 12:26:00,
2013-05-15 07:32:00,59.0,46.0,30.42,SSW,210,3.0,6.0,61,0.00,,,0.00,Meteo,2013-05-15 12:32:00,
2013-05-15 07:37:00,59.0,45.0,30.42,West,273,1.0,2.0,60,0.00,,,0.00,Meteo,2013-05-15 12:37:00,
2013-05-15 07:42:00,60.0,46.0,30.43,WSW,238,2.0,4.0,59,0.00,,,0.00,Meteo,2013-05-15 12:42:00,
2013-05-15 07:47:00,60.0,45.0,30.43,West,261,3.0,5.0,58,0.00,,,0.00,Meteo,2013-05-15 12:47:00,
2013-05-15 07:52:00,60.0,45.0,30.43,WNW,294,2.0,3.0,57,0.00,,,0.00,Meteo,2013-05-15 12:52:00,
2013-05-15 07:57:00,61.0,46.0,30.44,WSW,250,1.0,2.0,58,0.00,,,0.00,Meteo,2013-05-15 12:57:00,
2013-05-15 08:02:00,61.0,46.0,30.44,WSW,239,4.0,5.0,57,0.00,,,0.00,Meteo,2013-05-15 13:02:00,
2013-05-15 08:07:00,61.0,45.0,30.45,NW,314,2.0,5.0,56,0.00,,,0.00,Meteo,2013-05-15 13:07:00,
2013-05-15 08:12:00,62.0,46.0,30.45,West,280,2.0,3.0,56,0.00,,,0.00,Meteo,2013-05-15 13:12:00,
2013-05-15 08:17:00,62.0,45.0,30.45,West,264,2.0,4.0,53,0.00,,,0.00,Meteo,2013-05-15 13:17:00,
2013-05-15 08:23:00,62.0,44.0,30.46,WSW,253,3.0,6.0,51,0.00,,,0.00,Meteo,2013-05-15 13:23:00,
2013-05-15 08:28:00,63.0,43.0,30.46,West,272,4.0,6.0,48,0.00,,,0.00,Meteo,2013-05-15 13:28:00,
2013-05-15 08:33:00,63.0,44.0,30.46,NW,321,2.0,4.0,50,0.00,,,0.00,Meteo,2013-05-15 13:33:00,
2013-05-15 08:38:00,64.0,44.0,30.46,NW,316,5.0,7.0,48,0.00,,,0.00,Meteo,2013-05-15 13:38:00,
2013-05-15 08:43:00,64.0,44.0,30.46,West,270,2.0,4.0,48,0.00,,,0.00,Meteo,2013-05-15 13:43:00,
2013-05-15 08:48:00,64.0,43.0,30.46,WNW,289,3.0,5.0,47,0.00,,,0.00,Meteo,2013-05-15 13:48:00,
2013-05-15 08:54:00,65.0,44.0,30.46,WNW,300,3.0,7.0,46,0.00,,,0.00,Meteo,2013-05-15 13:54:00,
2013-05-15 08:59:00,65.0,44.0,30.46,WNW,301,4.0,5.0,46,0.00,,,0.00,Meteo,2013-05-15 13:59:00,
2013-05-15 09:05:00,65.0,43.0,30.46,West,259,3.0,7.0,44,0.00,,,0.00,Meteo,2013-05-15 14:05:00,
2013-05-15 09:10:00,66.0,43.0,30.46,WSW,241,3.0,7.0,44,0.00,,,0.00,Meteo,2013-05-15 14:10:00,
2013-05-15 09:15:00,67.0,44.0,30.46,WNW,302,4.0,9.0,43,0.00,,,0.00,Meteo,2013-05-15 14:15:00,
2013-05-15 09:21:00,67.0,44.0,30.47,West,279,4.0,6.0,43,0.00,,,0.00,Meteo,2013-05-15 14:21:00,
2013-05-15 09:26:00,67.0,43.0,30.47,West,266,4.0,7.0,42,0.00,,,0.00,Meteo,2013-05-15 14:26:00,
2013-05-15 09:31:00,67.0,44.0,30.47,West,265,3.0,6.0,43,0.00,,,0.00,Meteo,2013-05-15 14:31:00,
2013-05-15 09:36:00,67.0,44.0,30.46,WNW,293,3.0,6.0,43,0.00,,,0.00,Meteo,2013-05-15 14:36:00,
2013-05-15 09:41:00,67.0,44.0,30.46,WNW,295,1.0,2.0,43,0.00,,,0.00,Meteo,2013-05-15 14:41:00,
2013-05-15 09:47:00,68.0,45.0,30.46,West,260,2.0,4.0,43,0.00,,,0.00,Meteo,2013-05-15 14:47:00,
2013-05-15 09:52:00,68.0,43.0,30.46,West,265,3.0,5.0,41,0.00,,,0.00,Meteo,2013-05-15 14:52:00,
2013-05-15 09:57:00,69.0,44.0,30.46,West,266,1.0,4.0,40,0.00,,,0.00,Meteo,2013-05-15 14:57:00,
2013-05-15 10:02:00,69.0,42.0,30.46,WNW,284,4.0,6.0,38,0.00,,,0.00,Meteo,2013-05-15 15:02:00,
2013-05-15 10:07:00,69.0,43.0,30.46,WSW,240,4.0,9.0,39,0.00,,,0.00,Meteo,2013-05-15 15:07:00,
2013-05-15 10:13:00,70.0,43.0,30.46,WSW,244,5.0,11.0,37,0.00,,,0.00,Meteo,2013-05-15 15:13:00,
2013-05-15 10:18:00,70.0,43.0,30.46,West,278,2.0,5.0,37,0.00,,,0.00,Meteo,2013-05-15 15:18:00,
2013-05-15 10:23:00,69.0,40.0,30.46,WNW,301,4.0,6.0,35,0.00,,,0.00,Meteo,2013-05-15 15:23:00,
2013-05-15 10:28:00,70.0,43.0,30.46,West,269,3.0,7.0,37,0.00,,,0.00,Meteo,2013-05-15 15:28:00,
2013-05-15 10:33:00,70.0,41.0,30.46,NW,324,5.0,9.0,35,0.00,,,0.00,Meteo,2013-05-15 15:33:00,
2013-05-15 10:38:00,70.0,40.0,30.46,WNW,302,4.0,6.0,34,0.00,,,0.00,Meteo,2013-05-15 15:38:00,
2013-05-15 10:44:00,70.0,40.0,30.46,NW,320,6.0,14.0,33,0.00,,,0.00,Meteo,2013-05-15 15:44:00,
2013-05-15 10:49:00,70.0,40.0,30.47,NNW,330,5.0,6.0,33,0.00,,,0.00,Meteo,2013-05-15 15:49:00,
2013-05-15 10:55:00,70.0,40.0,30.47,NNW,329,6.0,8.0,34,0.00,,,0.00,Meteo,2013-05-15 15:55:00,
2013-05-15 11:01:00,70.0,40.0,30.47,NW,307,5.0,8.0,34,0.00,,,0.00,Meteo,2013-05-15 16:01:00,
2013-05-15 11:07:00,71.0,40.0,30.47,NW,306,4.0,7.0,33,0.00,,,0.00,Meteo,2013-05-15 16:07:00,
2013-05-15 11:12:00,71.0,40.0,30.47,NW,305,7.0,13.0,33,0.00,,,0.00,Meteo,2013-05-15 16:12:00,
2013-05-15 11:17:00,71.0,40.0,30.46,NW,322,5.0,8.0,33,0.00,,,0.00,Meteo,2013-05-15 16:17:00,
2013-05-15 11:22:00,71.0,40.0,30.46,NW,318,3.0,7.0,33,0.00,,,0.00,Meteo,2013-05-15 16:22:00,
2013-05-15 11:28:00,71.0,40.0,30.46,WNW,296,7.0,12.0,33,0.00,,,0.00,Meteo,2013-05-15 16:28:00,
2013-05-15 11:34:00,71.0,40.0,30.46,WNW,283,4.0,7.0,33,0.00,,,0.00,Meteo,2013-05-15 16:34:00,
2013-05-15 11:40:00,72.0,40.0,30.46,NW,314,8.0,15.0,31,0.00,,,0.00,Meteo,2013-05-15 16:40:00,
2013-05-15 11:46:00,72.0,40.0,30.45,NW,307,6.0,12.0,31,0.00,,,0.00,Meteo,2013-05-15 16:46:00,
2013-05-15 11:52:00,72.0,41.0,30.45,WNW,293,3.0,7.0,33,0.00,,,0.00,Meteo,2013-05-15 16:52:00,
2013-05-15 11:57:00,73.0,41.0,30.45,NW,306,5.0,9.0,31,0.00,,,0.00,Meteo,2013-05-15 16:57:00,
2013-05-15 12:02:00,72.0,39.0,30.45,WNW,297,5.0,10.0,30,0.00,,,0.00,Meteo,2013-05-15 17:02:00,
2013-05-15 12:07:00,72.0,39.0,30.45,WNW,297,5.0,17.0,30,0.00,,,0.00,Meteo,2013-05-15 17:07:00,
2013-05-15 12:12:00,73.0,40.0,30.45,NW,326,8.0,12.0,30,0.00,,,0.00,Meteo,2013-05-15 17:12:00,
2013-05-15 12:18:00,73.0,37.0,30.45,NW,308,8.0,13.0,27,0.00,,,0.00,Meteo,2013-05-15 17:18:00,
2013-05-15 12:23:00,73.0,38.0,30.45,WNW,282,5.0,10.0,28,0.00,,,0.00,Meteo,2013-05-15 17:23:00,
2013-05-15 12:29:00,74.0,39.0,30.45,NW,311,7.0,10.0,28,0.00,,,0.00,Meteo,2013-05-15 17:29:00,
2013-05-15 12:34:00,74.0,38.0,30.45,WNW,300,4.0,9.0,27,0.00,,,0.00,Meteo,2013-05-15 17:34:00,
2013-05-15 12:39:00,73.0,37.0,30.45,NW,313,8.0,12.0,27,0.00,,,0.00,Meteo,2013-05-15 17:39:00,
2013-05-15 12:44:00,73.0,38.0,30.45,NW,313,6.0,10.0,28,0.00,,,0.00,Meteo,2013-05-15 17:44:00,
2013-05-15 12:49:00,74.0,40.0,30.44,West,268,4.0,7.0,29,0.00,,,0.00,Meteo,2013-05-15 17:49:00,
2013-05-15 12:54:00,74.0,38.0,30.44,NW,307,8.0,14.0,27,0.00,,,0.00,Meteo,2013-05-15 17:54:00,
2013-05-15 12:59:00,74.0,40.0,30.44,NW,322,5.0,9.0,29,0.00,,,0.00,Meteo,2013-05-15 17:59:00,
2013-05-15 13:04:00,74.0,40.0,30.45,WNW,290,5.0,7.0,29,0.00,,,0.00,Meteo,2013-05-15 18:04:00,
2013-05-15 13:09:00,74.0,41.0,30.44,WNW,290,6.0,10.0,30,0.00,,,0.00,Meteo,2013-05-15 18:09:00,
2013-05-15 13:14:00,74.0,41.0,30.44,NW,307,6.0,9.0,30,0.00,,,0.00,Meteo,2013-05-15 18:14:00,
2013-05-15 13:19:00,74.0,40.0,30.44,West,270,3.0,6.0,29,0.00,,,0.00,Meteo,2013-05-15 18:19:00,
2013-05-15 13:24:00,74.0,40.0,30.44,WNW,302,8.0,16.0,29,0.00,,,0.00,Meteo,2013-05-15 18:24:00,
2013-05-15 13:29:00,74.0,40.0,30.44,NW,309,6.0,10.0,29,0.00,,,0.00,Meteo,2013-05-15 18:29:00,
2013-05-15 13:34:00,75.0,40.0,30.44,NW,305,8.0,14.0,28,0.00,,,0.00,Meteo,2013-05-15 18:34:00,
2013-05-15 13:39:00,75.0,40.0,30.44,NW,304,7.0,13.0,28,0.00,,,0.00,Meteo,2013-05-15 18:39:00,
2013-05-15 13:44:00,75.0,41.0,30.43,NW,311,8.0,16.0,29,0.00,,,0.00,Meteo,2013-05-15 18:44:00,
2013-05-15 13:49:00,76.0,41.0,30.43,WNW,292,4.0,8.0,28,0.00,,,0.00,Meteo,2013-05-15 18:49:00,
2013-05-15 13:54:00,76.0,41.0,30.43,NW,324,6.0,10.0,28,0.00,,,0.00,Meteo,2013-05-15 18:54:00,
2013-05-15 13:59:00,75.0,41.0,30.43,West,259,3.0,6.0,29,0.00,,,0.00,Meteo,2013-05-15 18:59:00,
2013-05-15 14:05:00,76.0,41.0,30.43,West,274,5.0,13.0,29,0.00,,,0.00,Meteo,2013-05-15 19:05:00,
2013-05-15 14:11:00,76.0,40.0,30.43,NW,310,6.0,10.0,27,0.00,,,0.00,Meteo,2013-05-15 19:11:00,
2013-05-15 14:16:00,76.0,40.0,30.43,West,276,3.0,7.0,27,0.00,,,0.00,Meteo,2013-05-15 19:16:00,
2013-05-15 14:22:00,76.0,40.0,30.43,NW,305,8.0,12.0,27,0.00,,,0.00,Meteo,2013-05-15 19:22:00,
2013-05-15 14:27:00,76.0,40.0,30.43,NW,311,7.0,11.0,27,0.00,,,0.00,Meteo,2013-05-15 19:27:00,
2013-05-15 14:32:00,76.0,40.0,30.43,WNW,293,5.0,11.0,27,0.00,,,0.00,Meteo,2013-05-15 19:32:00,
2013-05-15 14:38:00,77.0,40.0,30.43,West,266,7.0,12.0,27,0.00,,,0.00,Meteo,2013-05-15 19:38:00,
2013-05-15 14:43:00,77.0,40.0,30.43,West,268,4.0,7.0,27,0.00,,,0.00,Meteo,2013-05-15 19:43:00,
2013-05-15 14:49:00,77.0,40.0,30.42,NNW,327,4.0,7.0,27,0.00,,,0.00,Meteo,2013-05-15 19:49:00,
2013-05-15 14:55:00,77.0,41.0,30.42,NW,307,4.0,6.0,28,0.00,,,0.00,Meteo,2013-05-15 19:55:00,
2013-05-15 15:01:00,77.0,40.0,30.42,West,268,5.0,7.0,26,0.00,,,0.00,Meteo,2013-05-15 20:01:00,
2013-05-15 15:07:00,77.0,40.0,30.42,NW,306,5.0,10.0,26,0.00,,,0.00,Meteo,2013-05-15 20:07:00,
2013-05-15 15:12:00,76.0,40.0,30.42,NW,304,4.0,9.0,27,0.00,,,0.00,Meteo,2013-05-15 20:12:00,
2013-05-15 15:17:00,76.0,40.0,30.41,NW,320,5.0,9.0,27,0.00,,,0.00,Meteo,2013-05-15 20:17:00,
2013-05-15 15:22:00,77.0,40.0,30.41,WNW,282,3.0,5.0,27,0.00,,,0.00,Meteo,2013-05-15 20:22:00,
2013-05-15 15:27:00,77.0,39.0,30.41,WNW,297,6.0,11.0,25,0.00,,,0.00,Meteo,2013-05-15 20:27:00,
2013-05-15 15:32:00,77.0,39.0,30.41,West,268,3.0,4.0,25,0.00,,,0.00,Meteo,2013-05-15 20:32:00,
2013-05-15 15:37:00,78.0,39.0,30.41,NW,307,4.0,13.0,25,0.00,,,0.00,Meteo,2013-05-15 20:37:00,
2013-05-15 15:43:00,78.0,37.0,30.41,NW,311,5.0,11.0,23,0.00,,,0.00,Meteo,2013-05-15 20:43:00,
2013-05-15 15:49:00,78.0,37.0,30.40,WNW,291,2.0,5.0,23,0.00,,,0.00,Meteo,2013-05-15 20:49:00,
2013-05-15 15:55:00,78.0,36.0,30.40,West,276,5.0,7.0,22,0.00,,,0.00,Meteo,2013-05-15 20:55:00,
2013-05-15 16:00:00,79.0,37.0,30.40,NW,306,4.0,9.0,22,0.00,,,0.00,Meteo,2013-05-15 21:00:00,
2013-05-15 16:06:00,79.0,37.0,30.40,NW,309,6.0,10.0,22,0.00,,,0.00,Meteo,2013-05-15 21:06:00,
2013-05-15 16:11:00,78.0,35.0,30.40,NNW,333,7.0,13.0,21,0.00,,,0.00,Meteo,2013-05-15 21:11:00,
2013-05-15 16:16:00,78.0,36.0,30.40,NW,310,5.0,13.0,22,0.00,,,0.00,Meteo,2013-05-15 21:16:00,
2013-05-15 16:21:00,78.0,37.0,30.40,NW,324,7.0,11.0,23,0.00,,,0.00,Meteo,2013-05-15 21:21:00,
2013-05-15 16:27:00,77.0,36.0,30.40,NW,312,3.0,7.0,23,0.00,,,0.00,Meteo,2013-05-15 21:27:00,
2013-05-15 16:32:00,78.0,37.0,30.40,WNW,283,4.0,10.0,23,0.00,,,0.00,Meteo,2013-05-15 21:32:00,
2013-05-15 16:38:00,78.0,36.0,30.40,NW,306,4.0,10.0,22,0.00,,,0.00,Meteo,2013-05-15 21:38:00,
2013-05-15 16:43:00,78.0,35.0,30.40,NW,315,8.0,13.0,21,0.00,,,0.00,Meteo,2013-05-15 21:43:00,
2013-05-15 16:48:00,78.0,37.0,30.40,West,278,3.0,8.0,23,0.00,,,0.00,Meteo,2013-05-15 21:48:00,
2013-05-15 16:53:00,79.0,38.0,30.40,NW,304,4.0,7.0,23,0.00,,,0.00,Meteo,2013-05-15 21:53:00,
2013-05-15 16:58:00,78.0,38.0,30.40,WNW,298,3.0,6.0,24,0.00,,,0.00,Meteo,2013-05-15 21:58:00,
2013-05-15 17:03:00,78.0,38.0,30.40,NW,314,9.0,19.0,24,0.00,,,0.00,Meteo,2013-05-15 22:03:00,
2013-05-15 17:09:00,78.0,35.0,30.40,NW,316,8.0,11.0,21,0.00,,,0.00,Meteo,2013-05-15 22:09:00,
2013-05-15 17:14:00,78.0,35.0,30.40,NW,306,6.0,9.0,21,0.00,,,0.00,Meteo,2013-05-15 22:14:00,
2013-05-15 17:19:00,78.0,36.0,30.41,NW,322,5.0,9.0,22,0.00,,,0.00,Meteo,2013-05-15 22:19:00,
2013-05-15 17:25:00,76.0,37.0,30.41,NW,308,7.0,12.0,24,0.00,,,0.00,Meteo,2013-05-15 22:25:00,
2013-05-15 17:30:00,76.0,37.0,30.41,NNW,328,8.0,12.0,24,0.00,,,0.00,Meteo,2013-05-15 22:30:00,
2013-05-15 17:35:00,75.0,36.0,30.41,NW,324,6.0,10.0,24,0.00,,,0.00,Meteo,2013-05-15 22:35:00,
2013-05-15 17:40:00,75.0,36.0,30.41,NW,317,5.0,10.0,24,0.00,,,0.00,Meteo,2013-05-15 22:40:00,
2013-05-15 17:45:00,75.0,36.0,30.41,NNW,329,7.0,10.0,24,0.00,,,0.00,Meteo,2013-05-15 22:45:00,
2013-05-15 17:50:00,75.0,36.0,30.41,NW,324,6.0,9.0,24,0.00,,,0.00,Meteo,2013-05-15 22:50:00,
2013-05-15 17:55:00,76.0,37.0,30.41,NNW,332,8.0,12.0,24,0.00,,,0.00,Meteo,2013-05-15 22:55:00,
2013-05-15 18:01:00,76.0,39.0,30.41,NNW,342,4.0,8.0,26,0.00,,,0.00,Meteo,2013-05-15 23:01:00,
2013-05-15 18:07:00,76.0,37.0,30.41,NW,321,7.0,9.0,24,0.00,,,0.00,Meteo,2013-05-15 23:07:00,
2013-05-15 18:12:00,76.0,38.0,30.41,WNW,298,5.0,8.0,25,0.00,,,0.00,Meteo,2013-05-15 23:12:00,
2013-05-15 18:17:00,76.0,37.0,30.41,WNW,303,7.0,10.0,24,0.00,,,0.00,Meteo,2013-05-15 23:17:00,
2013-05-15 18:22:00,76.0,38.0,30.41,WNW,302,4.0,6.0,25,0.00,,,0.00,Meteo,2013-05-15 23:22:00,
2013-05-15 18:27:00,75.0,37.0,30.41,NNW,335,5.0,8.0,25,0.00,,,0.00,Meteo,2013-05-15 23:27:00,
2013-05-15 18:32:00,75.0,37.0,30.41,NNW,341,5.0,10.0,25,0.00,,,0.00,Meteo,2013-05-15 23:32:00,
2013-05-15 18:37:00,74.0,36.0,30.42,North,352,7.0,10.0,25,0.00,,,0.00,Meteo,2013-05-15 23:37:00,
2013-05-15 18:42:00,74.0,37.0,30.42,NNW,344,5.0,8.0,26,0.00,,,0.00,Meteo,2013-05-15 23:42:00,
2013-05-15 18:48:00,73.0,37.0,30.42,NNW,341,5.0,8.0,27,0.00,,,0.00,Meteo,2013-05-15 23:48:00,
2013-05-15 18:54:00,72.0,36.0,30.42,North,351,7.0,10.0,27,0.00,,,0.00,Meteo,2013-05-15 23:54:00,
2013-05-15 18:59:00,72.0,36.0,30.43,North,350,5.0,7.0,27,0.00,,,0.00,Meteo,2013-05-15 23:59:00,
2013-05-15 19:05:00,72.0,36.0,30.43,North,353,6.0,9.0,27,0.00,,,0.00,Meteo,2013-05-16 00:05:00,
2013-05-15 19:10:00,71.0,36.0,30.43,NE,40,5.0,8.0,28,0.00,,,0.00,Meteo,2013-05-16 00:10:00,
2013-05-15 19:15:00,69.0,39.0,30.43,NE,50,4.0,8.0,33,0.00,,,0.00,Meteo,2013-05-16 00:15:00,
2013-05-15 19:20:00,67.0,38.0,30.43,NNE,19,4.0,6.0,35,0.00,,,0.00,Meteo,2013-05-16 00:20:00,
2013-05-15 19:25:00,66.0,38.0,30.43,North,2,3.0,5.0,36,0.00,,,0.00,Meteo,2013-05-16 00:25:00,
2013-05-15 19:31:00,66.0,39.0,30.43,NNE,31,2.0,4.0,37,0.00,,,0.00,Meteo,2013-05-16 00:31:00,
2013-05-15 19:36:00,67.0,40.0,30.43,NE,36,2.0,3.0,37,0.00,,,0.00,Meteo,2013-05-16 00:36:00,
2013-05-15 19:41:00,67.0,40.0,30.44,NE,42,2.0,3.0,37,0.00,,,0.00,Meteo,2013-05-16 00:41:00,
2013-05-15 19:46:00,66.0,39.0,30.44,NNE,25,1.0,2.0,37,0.00,,,0.00,Meteo,2013-05-16 00:46:00,
2013-05-15 19:51:00,66.0,40.0,30.44,East,79,2.0,3.0,38,0.00,,,0.00,Meteo,2013-05-16 00:51:00,
2013-05-15 19:56:00,66.0,40.0,30.44,East,82,2.0,2.0,39,0.00,,,0.00,Meteo,2013-05-16 00:56:00,
2013-05-15 20:01:00,66.0,40.0,30.44,North,0,0.0,0.0,39,0.00,,,0.00,Meteo,2013-05-16 01:01:00,
2013-05-15 20:06:00,66.0,40.0,30.44,East,82,0.0,1.0,39,0.00,,,0.00,Meteo,2013-05-16 01:06:00,
2013-05-15 20:12:00,65.0,40.0,30.44,North,0,0.0,0.0,40,0.00,,,0.00,Meteo,2013-05-16 01:12:00,
2013-05-15 20:17:00,65.0,41.0,30.45,North,0,0.0,0.0,41,0.00,,,0.00,Meteo,2013-05-16 01:17:00,
2013-05-15 20:22:00,65.0,41.0,30.45,North,0,0.0,0.0,41,0.00,,,0.00,Meteo,2013-05-16 01:22:00,
2013-05-15 20:27:00,65.0,41.0,30.45,North,0,0.0,0.0,42,0.00,,,0.00,Meteo,2013-05-16 01:27:00,
2013-05-15 20:33:00,65.0,41.0,30.45,North,0,0.0,0.0,42,0.00,,,0.00,Meteo,2013-05-16 01:33:00,
2013-05-15 20:38:00,65.0,42.0,30.45,North,0,0.0,0.0,43,0.00,,,0.00,Meteo,2013-05-16 01:38:00,
2013-05-15 20:43:00,64.0,41.0,30.45,East,82,0.0,1.0,43,0.00,,,0.00,Meteo,2013-05-16 01:43:00,
2013-05-15 20:48:00,64.0,42.0,30.45,North,0,0.0,0.0,44,0.00,,,0.00,Meteo,2013-05-16 01:48:00,
2013-05-15 20:53:00,64.0,42.0,30.45,North,0,0.0,0.0,44,0.00,,,0.00,Meteo,2013-05-16 01:53:00,
2013-05-15 20:58:00,64.0,42.0,30.45,North,0,0.0,0.0,45,0.00,,,0.00,Meteo,2013-05-16 01:58:00,
2013-05-15 21:03:00,63.0,42.0,30.45,North,0,0.0,0.0,46,0.00,,,0.00,Meteo,2013-05-16 02:03:00,
2013-05-15 21:09:00,63.0,42.0,30.45,North,0,0.0,0.0,46,0.00,,,0.00,Meteo,2013-05-16 02:09:00,
2013-05-15 21:15:00,63.0,42.0,30.45,North,0,0.0,0.0,47,0.00,,,0.00,Meteo,2013-05-16 02:15:00,
2013-05-15 21:20:00,63.0,42.0,30.45,North,0,0.0,0.0,47,0.00,,,0.00,Meteo,2013-05-16 02:20:00,
2013-05-15 21:25:00,63.0,42.0,30.46,North,0,0.0,0.0,47,0.00,,,0.00,Meteo,2013-05-16 02:25:00,
2013-05-15 21:30:00,63.0,44.0,30.46,North,0,0.0,0.0,49,0.00,,,0.00,Meteo,2013-05-16 02:30:00,
2013-05-15 21:36:00,62.0,44.0,30.47,SSE,162,0.0,1.0,51,0.00,,,0.00,Meteo,2013-05-16 02:36:00,
2013-05-15 21:41:00,62.0,44.0,30.46,SSE,162,0.0,1.0,51,0.00,,,0.00,Meteo,2013-05-16 02:41:00,
2013-05-15 21:46:00,62.0,44.0,30.46,North,0,0.0,0.0,51,0.00,,,0.00,Meteo,2013-05-16 02:46:00,
2013-05-15 21:51:00,62.0,44.0,30.46,North,0,0.0,0.0,51,0.00,,,0.00,Meteo,2013-05-16 02:51:00,
2013-05-15 21:56:00,62.0,44.0,30.46,SSE,161,2.0,2.0,52,0.00,,,0.00,Meteo,2013-05-16 02:56:00,
2013-05-15 22:01:00,62.0,45.0,30.45,ESE,102,1.0,2.0,53,0.00,,,0.00,Meteo,2013-05-16 03:01:00,
2013-05-15 22:06:00,62.0,44.0,30.46,North,0,0.0,0.0,51,0.00,,,0.00,Meteo,2013-05-16 03:06:00,
2013-05-15 22:11:00,62.0,46.0,30.46,East,101,1.0,3.0,55,0.00,,,0.00,Meteo,2013-05-16 03:11:00,
2013-05-15 22:16:00,62.0,45.0,30.46,SSE,168,2.0,3.0,54,0.00,,,0.00,Meteo,2013-05-16 03:16:00,
2013-05-15 22:21:00,61.0,43.0,30.46,SSW,210,1.0,2.0,52,0.00,,,0.00,Meteo,2013-05-16 03:21:00,
2013-05-15 22:26:00,61.0,43.0,30.46,SE,128,1.0,2.0,51,0.00,,,0.00,Meteo,2013-05-16 03:26:00,
2013-05-15 22:31:00,61.0,43.0,30.46,SSE,167,1.0,2.0,51,0.00,,,0.00,Meteo,2013-05-16 03:31:00,
2013-05-15 22:36:00,62.0,43.0,30.46,SSE,165,2.0,3.0,49,0.00,,,0.00,Meteo,2013-05-16 03:36:00,
2013-05-15 22:42:00,62.0,43.0,30.45,SSE,163,1.0,1.0,50,0.00,,,0.00,Meteo,2013-05-16 03:42:00,
2013-05-15 22:47:00,62.0,43.0,30.45,SSE,164,0.0,1.0,50,0.00,,,0.00,Meteo,2013-05-16 03:47:00,
2013-05-15 22:52:00,62.0,43.0,30.46,SSE,164,1.0,2.0,49,0.00,,,0.00,Meteo,2013-05-16 03:52:00,
2013-05-15 22:57:00,62.0,43.0,30.46,South,187,0.0,1.0,50,0.00,,,0.00,Meteo,2013-05-16 03:57:00,
2013-05-15 23:01:00,62.0,44.0,30.46,North,0,0.0,0.0,51,0.00,,,0.00,Meteo,2013-05-16 04:01:00,
2013-05-15 23:02:00,62.0,43.0,30.46,North,0,0.0,0.0,50,0.00,,,0.00,Meteo,2013-05-16 04:02:00,
2013-05-15 23:03:00,62.0,44.0,30.46,North,0,0.0,0.0,51,0.00,,,0.00,Meteo,2013-05-16 04:03:00,
2013-05-15 23:07:00,62.0,44.0,30.45,South,187,0.0,1.0,51,0.00,,,0.00,Meteo,2013-05-16 04:07:00,
2013-05-15 23:12:00,62.0,44.0,30.45,North,0,0.0,0.0,51,0.00,,,0.00,Meteo,2013-05-16 04:12:00,
2013-05-15 23:17:00,62.0,43.0,30.46,South,187,1.0,2.0,50,0.00,,,0.00,Meteo,2013-05-16 04:17:00,
2013-05-15 23:22:00,61.0,43.0,30.46,North,0,0.0,0.0,51,0.00,,,0.00,Meteo,2013-05-16 04:22:00,
2013-05-15 23:27:00,61.0,43.0,30.46,South,187,1.0,1.0,52,0.00,,,0.00,Meteo,2013-05-16 04:27:00,
2013-05-15 23:32:00,61.0,43.0,30.46,West,265,0.0,1.0,52,0.00,,,0.00,Meteo,2013-05-16 04:32:00,
2013-05-15 23:38:00,61.0,43.0,30.46,North,0,0.0,0.0,52,0.00,,,0.00,Meteo,2013-05-16 04:38:00,
2013-05-15 23:43:00,60.0,43.0,30.46,North,0,0.0,0.0,53,0.00,,,0.00,Meteo,2013-05-16 04:43:00,
2013-05-15 23:48:00,60.0,43.0,30.46,North,0,0.0,0.0,54,0.00,,,0.00,Meteo,2013-05-16 04:48:00,
2013-05-15 23:53:00,60.0,43.0,30.46,West,265,0.0,1.0,54,0.00,,,0.00,Meteo,2013-05-16 04:53:00,
2013-05-15 23:58:00,60.0,44.0,30.46,North,0,0.0,0.0,55,0.00,,,0.00,Meteo,2013-05-16 04:58:00,